createdAt,value
2022-10-17T00:00:33.725Z,15.2
2022-10-17T00:01:50.056Z,15.2
2022-10-17T00:03:06.349Z,15.2
2022-10-17T00:04:22.609Z,15.1
2022-10-17T00:05:38.936Z,15.1
2022-10-17T00:06:55.206Z,15
2022-10-17T00:08:10.501Z,15
2022-10-17T00:09:26.838Z,14.9
2022-10-17T00:10:43.104Z,14.9
2022-10-17T00:11:59.430Z,14.9
2022-10-17T00:13:15.714Z,14.8
2022-10-17T00:14:31.985Z,14.8
2022-10-17T00:15:48.303Z,14.8
2022-10-17T00:17:04.563Z,14.8
2022-10-17T00:18:20.860Z,14.8
2022-10-17T00:19:37.164Z,14.8
2022-10-17T00:20:53.479Z,14.8
2022-10-17T00:22:09.746Z,14.7
2022-10-17T00:23:26.064Z,14.7
2022-10-17T00:24:41.342Z,14.7
2022-10-17T00:25:57.672Z,14.7
2022-10-17T00:27:13.969Z,14.6
2022-10-17T00:28:30.262Z,14.6
2022-10-17T00:29:46.518Z,14.7
2022-10-17T00:31:02.845Z,14.6
2022-10-17T00:32:19.112Z,14.6
2022-10-17T00:33:35.405Z,14.6
2022-10-17T00:34:51.730Z,14.6
2022-10-17T00:36:08.016Z,14.6
2022-10-17T00:37:24.293Z,14.7
2022-10-17T00:38:40.613Z,14.6
2022-10-17T00:39:56.874Z,14.6
2022-10-17T00:41:12.178Z,14.7
2022-10-17T00:42:28.515Z,14.7
2022-10-17T00:43:44.771Z,14.7
2022-10-17T00:45:01.073Z,14.7
2022-10-17T00:46:17.395Z,14.7
2022-10-17T00:47:33.685Z,14.7
2022-10-17T00:48:49.987Z,14.7
2022-10-17T00:50:06.236Z,14.7
2022-10-17T00:51:22.538Z,14.7
2022-10-17T00:52:38.840Z,14.7
2022-10-17T00:53:55.165Z,14.7
2022-10-17T00:55:11.414Z,14.7
2022-10-17T00:56:27.712Z,14.7
2022-10-17T00:57:43.056Z,14.7
2022-10-17T00:58:59.351Z,14.7
2022-10-17T01:00:15.610Z,14.7
2022-10-17T01:01:31.934Z,14.7
2022-10-17T01:02:48.226Z,14.7
2022-10-17T01:04:04.529Z,14.7
2022-10-17T01:05:20.789Z,14.7
2022-10-17T01:06:37.079Z,14.7
2022-10-17T01:07:53.377Z,14.7
2022-10-17T01:09:09.670Z,14.7
2022-10-17T01:10:25.964Z,14.8
2022-10-17T01:11:42.261Z,14.7
2022-10-17T01:12:58.576Z,14.7
2022-10-17T01:14:13.898Z,14.7
2022-10-17T01:15:30.165Z,14.8
2022-10-17T01:16:46.494Z,14.8
2022-10-17T01:18:02.738Z,14.8
2022-10-17T01:19:19.041Z,14.7
2022-10-17T01:20:35.331Z,14.7
2022-10-17T01:21:51.666Z,14.7
2022-10-17T01:23:07.935Z,14.7
2022-10-17T01:24:24.242Z,14.7
2022-10-17T01:25:40.542Z,14.7
2022-10-17T01:26:56.832Z,14.7
2022-10-17T01:28:13.134Z,14.7
2022-10-17T01:29:29.386Z,14.7
2022-10-17T01:30:44.698Z,14.7
2022-10-17T01:32:01.022Z,14.7
2022-10-17T01:33:17.316Z,14.7
2022-10-17T01:34:33.625Z,14.7
2022-10-17T01:35:49.918Z,14.6
2022-10-17T01:37:06.213Z,14.6
2022-10-17T01:38:22.467Z,14.6
2022-10-17T01:39:38.803Z,14.6
2022-10-17T01:40:55.047Z,14.5
2022-10-17T01:42:11.390Z,14.5
2022-10-17T01:43:27.651Z,14.5
2022-10-17T01:44:43.967Z,14.6
2022-10-17T01:46:00.226Z,14.6
2022-10-17T01:47:15.574Z,14.6
2022-10-17T01:48:31.862Z,14.6
2022-10-17T01:49:48.122Z,14.6
2022-10-17T01:51:04.429Z,14.6
2022-10-17T01:52:20.709Z,14.7
2022-10-17T01:53:37.004Z,14.6
2022-10-17T01:54:53.343Z,14.6
2022-10-17T01:56:09.590Z,14.7
2022-10-17T01:57:25.900Z,14.6
2022-10-17T01:58:42.212Z,14.7
2022-10-17T01:59:58.510Z,14.7
2022-10-17T02:01:14.780Z,14.6
2022-10-17T02:02:31.064Z,14.6
2022-10-17T02:03:46.405Z,14.7
2022-10-17T02:05:02.673Z,14.7
2022-10-17T02:06:19.012Z,14.7
2022-10-17T02:07:35.293Z,14.7
2022-10-17T02:08:51.567Z,14.7
2022-10-17T02:10:07.883Z,14.7
2022-10-17T02:11:24.174Z,14.7
2022-10-17T02:12:40.430Z,14.7
2022-10-17T02:13:56.763Z,14.7
2022-10-17T02:15:13.026Z,14.7
2022-10-17T02:16:29.313Z,14.7
2022-10-17T02:17:45.606Z,14.7
2022-10-17T02:19:01.908Z,14.7
2022-10-17T02:20:17.247Z,14.7
2022-10-17T02:21:33.508Z,14.7
2022-10-17T02:22:49.814Z,14.7
2022-10-17T02:24:06.101Z,14.7
2022-10-17T02:25:22.426Z,14.7
2022-10-17T02:26:38.715Z,14.7
2022-10-17T02:27:55.012Z,14.7
2022-10-17T02:29:11.305Z,14.7
2022-10-17T02:30:27.565Z,14.6
2022-10-17T02:31:43.860Z,14.7
2022-10-17T02:33:00.204Z,14.6
2022-10-17T02:34:16.448Z,14.7
2022-10-17T02:35:32.777Z,14.6
2022-10-17T02:36:48.049Z,14.6
2022-10-17T02:38:04.346Z,14.6
2022-10-17T02:39:20.638Z,14.7
2022-10-17T02:40:36.940Z,14.6
2022-10-17T02:41:53.267Z,14.6
2022-10-17T02:43:09.521Z,14.6
2022-10-17T02:44:25.828Z,14.6
2022-10-17T02:45:42.111Z,14.6
2022-10-17T02:46:58.404Z,14.6
2022-10-17T02:48:14.710Z,14.6
2022-10-17T02:49:31.034Z,14.5
2022-10-17T02:50:47.317Z,14.5
2022-10-17T02:52:03.621Z,14.5
2022-10-17T02:53:18.893Z,14.5
2022-10-17T02:54:35.195Z,14.5
2022-10-17T02:55:51.513Z,14.5
2022-10-17T02:57:07.779Z,14.4
2022-10-17T02:58:24.102Z,14.4
2022-10-17T02:59:40.396Z,14.4
2022-10-17T03:00:56.698Z,14.4
2022-10-17T03:03:29.254Z,14.4
2022-10-17T03:04:45.543Z,14.3
2022-10-17T03:06:01.849Z,14.3
2022-10-17T03:07:18.140Z,14.2
2022-10-17T03:08:34.428Z,14.2
2022-10-17T03:09:49.738Z,14.2
2022-10-17T03:11:06.033Z,14.2
2022-10-17T03:12:22.326Z,14.1
2022-10-17T03:13:38.619Z,14.1
2022-10-17T03:14:54.914Z,14.1
2022-10-17T03:16:11.213Z,14.1
2022-10-17T03:17:27.500Z,14
2022-10-17T03:18:43.800Z,14
2022-10-17T03:20:00.093Z,14
2022-10-17T03:21:16.391Z,14
2022-10-17T03:22:32.677Z,14
2022-10-17T03:23:48.975Z,14
2022-10-17T03:25:05.270Z,14
2022-10-17T03:26:20.575Z,13.9
2022-10-17T03:27:36.887Z,13.9
2022-10-17T03:28:53.164Z,13.9
2022-10-17T03:30:09.457Z,13.9
2022-10-17T03:31:25.754Z,13.9
2022-10-17T03:32:42.044Z,13.9
2022-10-17T03:33:58.339Z,13.9
2022-10-17T03:35:14.645Z,14
2022-10-17T03:36:30.942Z,14
2022-10-17T03:37:47.235Z,14
2022-10-17T03:39:03.523Z,14.1
2022-10-17T03:40:19.813Z,14.1
2022-10-17T03:41:36.110Z,14.1
2022-10-17T03:42:51.433Z,14.1
2022-10-17T03:44:07.714Z,14.1
2022-10-17T03:45:24.013Z,14.1
2022-10-17T03:46:40.305Z,14.2
2022-10-17T03:47:56.610Z,14.1
2022-10-17T03:49:12.890Z,14.2
2022-10-17T03:50:29.182Z,14.2
2022-10-17T03:51:45.475Z,14.2
2022-10-17T03:53:01.774Z,14.2
2022-10-17T03:54:18.065Z,14.2
2022-10-17T03:55:34.363Z,14.2
2022-10-17T03:56:50.652Z,14.3
2022-10-17T03:58:06.943Z,14.3
2022-10-17T03:59:22.257Z,14.3
2022-10-17T04:00:38.549Z,14.4
2022-10-17T04:01:54.000Z,14.3
2022-10-17T04:03:11.147Z,14.4
2022-10-17T04:04:27.434Z,14.4
2022-10-17T04:05:43.724Z,14.4
2022-10-17T04:06:59.052Z,14.4
2022-10-17T04:08:15.348Z,14.5
2022-10-17T04:09:31.632Z,14.5
2022-10-17T04:10:47.923Z,14.5
2022-10-17T04:12:04.217Z,14.5
2022-10-17T04:13:20.517Z,14.5
2022-10-17T04:14:36.816Z,14.5
2022-10-17T04:15:53.112Z,14.5
2022-10-17T04:17:09.402Z,14.5
2022-10-17T04:18:25.696Z,14.6
2022-10-17T04:19:41.996Z,14.6
2022-10-17T04:20:58.281Z,14.6
2022-10-17T04:22:14.569Z,14.7
2022-10-17T04:23:29.884Z,14.7
2022-10-17T04:24:46.187Z,14.7
2022-10-17T04:26:02.479Z,14.8
2022-10-17T04:27:18.763Z,14.8
2022-10-17T04:28:35.055Z,14.8
2022-10-17T04:29:51.366Z,14.8
2022-10-17T04:31:07.653Z,14.8
2022-10-17T04:32:23.946Z,14.9
2022-10-17T04:33:40.229Z,14.9
2022-10-17T04:34:56.540Z,14.9
2022-10-17T04:36:12.819Z,14.9
2022-10-17T04:37:29.118Z,15
2022-10-17T04:38:45.420Z,15
2022-10-17T04:40:00.731Z,15
2022-10-17T04:41:17.015Z,15
2022-10-17T04:42:33.310Z,15
2022-10-17T04:43:49.597Z,15.1
2022-10-17T04:45:05.895Z,15.1
2022-10-17T04:46:22.193Z,15.1
2022-10-17T04:47:38.483Z,15.1
2022-10-17T04:48:54.790Z,15.1
2022-10-17T04:50:11.069Z,15.1
2022-10-17T04:51:27.376Z,15.1
2022-10-17T04:52:43.662Z,15.1
2022-10-17T04:53:59.955Z,15.1
2022-10-17T04:55:16.245Z,15.1
2022-10-17T04:56:31.571Z,15.1
2022-10-17T04:57:47.813Z,15.1
2022-10-17T04:59:04.099Z,15.1
2022-10-17T05:00:20.394Z,15.1
2022-10-17T05:01:36.678Z,15.1
2022-10-17T05:02:52.932Z,15.2
2022-10-17T05:04:09.237Z,15.2
2022-10-17T05:05:25.537Z,15.2
2022-10-17T05:06:41.815Z,15.2
2022-10-17T05:07:58.069Z,15.2
2022-10-17T05:09:14.327Z,15.2
2022-10-17T05:10:30.553Z,15.3
2022-10-17T05:11:46.811Z,15.3
2022-10-17T05:13:02.000Z,15.3
2022-10-17T05:14:18.298Z,15.3
2022-10-17T05:15:34.532Z,15.4
2022-10-17T05:16:50.781Z,15.4
2022-10-17T05:18:07.021Z,15.4
2022-10-17T05:19:23.263Z,15.4
2022-10-17T05:20:39.497Z,15.4
2022-10-17T05:21:55.732Z,15.5
2022-10-17T05:23:11.974Z,15.5
2022-10-17T05:24:28.212Z,15.5
2022-10-17T05:25:44.458Z,15.5
2022-10-17T05:27:00.698Z,15.5
2022-10-17T05:28:16.929Z,15.5
2022-10-17T05:29:32.195Z,15.5
2022-10-17T05:30:48.434Z,15.6
2022-10-17T05:32:04.677Z,15.6
2022-10-17T05:33:20.919Z,15.6
2022-10-17T05:34:37.149Z,15.6
2022-10-17T05:35:53.393Z,15.6
2022-10-17T05:37:09.624Z,15.6
2022-10-17T05:38:25.875Z,15.6
2022-10-17T05:39:42.111Z,15.6
2022-10-17T05:40:58.365Z,15.6
2022-10-17T05:42:14.587Z,15.6
2022-10-17T05:43:30.827Z,15.6
2022-10-17T05:44:47.073Z,15.6
2022-10-17T05:46:02.324Z,15.6
2022-10-17T05:47:18.565Z,15.6
2022-10-17T05:48:34.808Z,15.6
2022-10-17T05:49:51.045Z,15.6
2022-10-17T05:51:07.290Z,15.6
2022-10-17T05:52:23.535Z,15.6
2022-10-17T05:53:39.770Z,15.6
2022-10-17T05:54:56.012Z,15.6
2022-10-17T05:56:12.241Z,15.6
2022-10-17T05:57:28.480Z,15.6
2022-10-17T05:58:44.726Z,15.6
2022-10-17T06:00:00.962Z,15.7
2022-10-17T06:01:17.210Z,15.7
2022-10-17T06:02:32.457Z,15.7
2022-10-17T06:03:48.705Z,15.7
2022-10-17T06:05:04.947Z,15.7
2022-10-17T06:06:21.187Z,15.8
2022-10-17T06:07:37.424Z,15.8
2022-10-17T06:08:53.675Z,15.8
2022-10-17T06:10:09.906Z,15.8
2022-10-17T06:11:26.149Z,15.9
2022-10-17T06:12:42.385Z,15.9
2022-10-17T06:13:58.623Z,15.9
2022-10-17T06:15:14.862Z,15.9
2022-10-17T06:16:31.099Z,15.9
2022-10-17T06:17:47.355Z,15.9
2022-10-17T06:19:02.596Z,16
2022-10-17T06:20:18.854Z,16
2022-10-17T06:21:35.080Z,16
2022-10-17T06:22:51.317Z,16
2022-10-17T06:24:07.558Z,16
2022-10-17T06:25:23.797Z,16.1
2022-10-17T06:26:40.040Z,16.1
2022-10-17T06:27:56.279Z,16.1
2022-10-17T06:29:12.532Z,16.1
2022-10-17T06:30:28.757Z,16.1
2022-10-17T06:31:45.006Z,16.2
2022-10-17T06:33:01.236Z,16.2
2022-10-17T06:34:17.479Z,16.2
2022-10-17T06:35:32.749Z,16.3
2022-10-17T06:36:48.000Z,16.3
2022-10-17T06:38:05.208Z,16.4
2022-10-17T06:39:21.459Z,16.5
2022-10-17T06:40:37.701Z,16.5
2022-10-17T06:41:53.937Z,16.6
2022-10-17T06:43:10.169Z,16.7
2022-10-17T06:44:26.418Z,16.8
2022-10-17T06:45:42.662Z,17
2022-10-17T06:46:58.895Z,17.2
2022-10-17T06:48:15.128Z,17.6
2022-10-17T06:49:31.373Z,18
2022-10-17T06:50:47.620Z,18.5
2022-10-17T06:52:02.866Z,19.1
2022-10-17T06:53:19.106Z,19.3
2022-10-17T06:54:35.364Z,19.8
2022-10-17T06:55:51.596Z,19.9
2022-10-17T06:57:07.825Z,20.2
2022-10-17T06:58:24.081Z,20.4
2022-10-17T06:59:40.310Z,20.5
2022-10-17T07:00:56.549Z,20.5
2022-10-17T07:02:12.792Z,20.4
2022-10-17T07:03:29.031Z,20.3
2022-10-17T07:04:45.284Z,20.4
2022-10-17T07:06:01.512Z,20.2
2022-10-17T07:07:17.752Z,20.2
2022-10-17T07:08:33.010Z,20.6
2022-10-17T07:09:49.239Z,20.7
2022-10-17T07:11:05.497Z,20.7
2022-10-17T07:12:21.730Z,20.9
2022-10-17T07:13:37.978Z,21.1
2022-10-17T07:14:54.203Z,21.4
2022-10-17T07:16:10.450Z,21.5
2022-10-17T07:17:26.679Z,21.8
2022-10-17T07:18:42.932Z,21.9
2022-10-17T07:19:59.170Z,21.6
2022-10-17T07:21:15.400Z,21.4
2022-10-17T07:22:31.658Z,21
2022-10-17T07:23:47.889Z,20.6
2022-10-17T07:25:03.139Z,20.9
2022-10-17T07:26:19.382Z,21.1
2022-10-17T07:27:35.619Z,21.2
2022-10-17T07:28:51.874Z,21.2
2022-10-17T07:30:08.107Z,21.5
2022-10-17T07:31:24.357Z,22
2022-10-17T07:32:40.585Z,22.1
2022-10-17T07:33:56.824Z,22.4
2022-10-17T07:35:13.065Z,22.6
2022-10-17T07:36:29.313Z,22.5
2022-10-17T07:37:45.560Z,22.3
2022-10-17T07:39:01.789Z,21.6
2022-10-17T07:40:18.032Z,21.4
2022-10-17T07:41:33.280Z,21.4
2022-10-17T07:42:49.513Z,21.7
2022-10-17T07:44:05.762Z,22
2022-10-17T07:45:22.006Z,22.3
2022-10-17T07:46:38.233Z,22.1
2022-10-17T07:47:54.485Z,22.4
2022-10-17T07:49:10.717Z,22.4
2022-10-17T07:50:26.961Z,22.1
2022-10-17T07:51:43.199Z,22.1
2022-10-17T07:52:59.455Z,21.9
2022-10-17T07:54:15.688Z,21.5
2022-10-17T07:55:31.917Z,21.3
2022-10-17T07:56:48.166Z,21.2
2022-10-17T07:58:03.413Z,20.9
2022-10-17T07:59:19.659Z,20.5
2022-10-17T08:00:35.889Z,20.2
2022-10-17T08:01:52.127Z,19.9
2022-10-17T08:03:08.371Z,19.6
2022-10-17T08:04:24.626Z,19.4
2022-10-17T08:05:40.871Z,19.2
2022-10-17T08:06:57.095Z,19.1
2022-10-17T08:08:13.334Z,19
2022-10-17T08:09:29.575Z,19
2022-10-17T08:10:45.821Z,19
2022-10-17T08:12:02.053Z,19
2022-10-17T08:13:18.309Z,19.1
2022-10-17T08:14:33.556Z,19.1
2022-10-17T08:15:49.786Z,19.2
2022-10-17T08:17:06.030Z,19.5
2022-10-17T08:18:22.269Z,19.8
2022-10-17T08:19:38.504Z,19.6
2022-10-17T08:20:54.756Z,19.6
2022-10-17T08:23:26.254Z,19.8
2022-10-17T08:24:41.518Z,20.1
2022-10-17T08:25:57.756Z,20.1
2022-10-17T08:27:13.996Z,20
2022-10-17T08:28:30.236Z,19.9
2022-10-17T08:29:46.479Z,19.8
2022-10-17T08:31:02.710Z,19.8
2022-10-17T08:32:18.954Z,19.6
2022-10-17T08:33:35.205Z,19.5
2022-10-17T08:34:51.441Z,19.5
2022-10-17T08:36:07.670Z,19.5
2022-10-17T08:37:23.917Z,19.7
2022-10-17T08:38:40.156Z,20.5
2022-10-17T08:39:56.390Z,21.3
2022-10-17T08:41:11.659Z,21.5
2022-10-17T08:42:27.895Z,21.7
2022-10-17T08:43:44.127Z,22.4
2022-10-17T08:45:00.383Z,23.2
2022-10-17T08:46:16.621Z,23.5
2022-10-17T08:47:32.857Z,23.2
2022-10-17T08:48:49.110Z,23.2
2022-10-17T08:50:05.343Z,23.9
2022-10-17T08:51:21.594Z,24.5
2022-10-17T08:52:37.826Z,24.8
2022-10-17T08:53:54.060Z,24.8
2022-10-17T08:55:10.315Z,24.6
2022-10-17T08:56:26.549Z,25
2022-10-17T08:57:41.796Z,25
2022-10-17T08:58:58.038Z,25.1
2022-10-17T09:00:14.288Z,24.8
2022-10-17T09:01:30.520Z,24.8
2022-10-17T09:02:46.763Z,24.9
2022-10-17T09:04:03.006Z,24.8
2022-10-17T09:05:19.238Z,25.4
2022-10-17T09:06:35.482Z,25.5
2022-10-17T09:09:07.962Z,25.4
2022-10-17T09:10:24.213Z,25.8
2022-10-17T09:11:40.450Z,26.2
2022-10-17T09:12:56.692Z,26.6
2022-10-17T09:14:11.935Z,26.9
2022-10-17T09:15:28.178Z,27.2
2022-10-17T09:16:44.431Z,27.2
2022-10-17T09:18:00.660Z,27.2
2022-10-17T09:19:16.914Z,27.2
2022-10-17T09:20:33.149Z,27
2022-10-17T09:21:49.389Z,27.1
2022-10-17T09:23:05.637Z,27
2022-10-17T09:24:21.869Z,26.6
2022-10-17T09:25:38.099Z,26.3
2022-10-17T09:26:54.348Z,26
2022-10-17T09:28:10.585Z,25.5
2022-10-17T09:29:26.834Z,25.1
2022-10-17T09:30:42.078Z,24.4
2022-10-17T09:31:58.319Z,24
2022-10-17T09:33:14.574Z,23.9
2022-10-17T09:34:30.811Z,23.6
2022-10-17T09:35:47.047Z,23.4
2022-10-17T09:37:03.292Z,23.5
2022-10-17T09:38:19.540Z,24.3
2022-10-17T09:39:35.781Z,25.4
2022-10-17T09:40:52.012Z,26.1
2022-10-17T09:42:08.252Z,26.5
2022-10-17T09:43:24.483Z,26.8
2022-10-17T09:44:40.742Z,27.4
2022-10-17T09:45:56.970Z,27.7
2022-10-17T09:47:12.230Z,27.7
2022-10-17T09:48:28.473Z,27.1
2022-10-17T09:49:44.711Z,27.7
2022-10-17T09:51:00.943Z,27.8
2022-10-17T09:52:17.197Z,27.9
2022-10-17T09:53:33.442Z,27.7
2022-10-17T09:54:49.671Z,27.6
2022-10-17T09:56:05.926Z,27.6
2022-10-17T09:57:22.160Z,27.4
2022-10-17T09:58:38.403Z,27.3
2022-10-17T09:59:54.658Z,27.3
2022-10-17T10:01:10.885Z,27.9
2022-10-17T10:02:27.114Z,28.2
2022-10-17T10:03:42.380Z,28.1
2022-10-17T10:04:58.618Z,28.1
2022-10-17T10:06:14.856Z,28.2
2022-10-17T10:07:31.104Z,28.3
2022-10-17T10:08:47.340Z,28.7
2022-10-17T10:10:03.586Z,28.4
2022-10-17T10:11:19.825Z,28.4
2022-10-17T10:12:36.072Z,28.4
2022-10-17T10:13:52.303Z,28.5
2022-10-17T10:15:08.547Z,28.9
2022-10-17T10:16:24.799Z,29.4
2022-10-17T10:17:41.026Z,29.8
2022-10-17T10:18:57.287Z,29.4
2022-10-17T10:20:12.544Z,29.2
2022-10-17T10:21:28.779Z,29.1
2022-10-17T10:22:45.027Z,28.8
2022-10-17T10:24:01.252Z,28.5
2022-10-17T10:25:17.503Z,28.1
2022-10-17T10:26:33.738Z,28.3
2022-10-17T10:27:49.982Z,28.4
2022-10-17T10:29:06.225Z,28.3
2022-10-17T10:30:22.464Z,28.4
2022-10-17T10:31:38.695Z,28.6
2022-10-17T10:32:54.938Z,28.6
2022-10-17T10:34:11.184Z,28.6
2022-10-17T10:35:27.442Z,28.4
2022-10-17T10:36:42.684Z,28.1
2022-10-17T10:37:58.938Z,28.1
2022-10-17T10:39:15.161Z,27.7
2022-10-17T10:40:31.413Z,27.7
2022-10-17T10:41:47.645Z,27.8
2022-10-17T10:43:03.887Z,27.9
2022-10-17T10:44:20.140Z,28.1
2022-10-17T10:45:36.384Z,28.1
2022-10-17T10:46:52.623Z,28.1
2022-10-17T10:48:08.855Z,27.8
2022-10-17T10:49:25.110Z,27
2022-10-17T10:50:41.341Z,26.6
2022-10-17T10:51:57.576Z,26.5
2022-10-17T10:53:12.831Z,26.4
2022-10-17T10:54:29.070Z,26.1
2022-10-17T10:55:45.337Z,25.6
2022-10-17T10:57:01.564Z,25.6
2022-10-17T10:58:17.805Z,25.5
2022-10-17T10:59:34.054Z,25.7
2022-10-17T11:00:50.289Z,25.7
2022-10-17T11:02:06.528Z,25.8
2022-10-17T11:03:22.764Z,25.8
2022-10-17T11:04:38.996Z,25.8
2022-10-17T11:05:55.246Z,26.2
2022-10-17T11:07:11.492Z,26.1
2022-10-17T11:08:27.727Z,26
2022-10-17T11:09:42.985Z,25.9
2022-10-17T11:10:59.217Z,25.9
2022-10-17T11:12:15.455Z,25.8
2022-10-17T11:13:31.701Z,25.6
2022-10-17T11:14:47.937Z,25.5
2022-10-17T11:16:04.184Z,25.4
2022-10-17T11:17:20.433Z,25.3
2022-10-17T11:18:36.673Z,25.5
2022-10-17T11:19:52.907Z,25.3
2022-10-17T11:21:09.149Z,25.3
2022-10-17T11:22:25.386Z,25.4
2022-10-17T11:23:41.624Z,25.6
2022-10-17T11:24:57.870Z,25.7
2022-10-17T11:26:13.132Z,25.9
2022-10-17T11:27:29.366Z,25.8
2022-10-17T11:28:45.617Z,25.8
2022-10-17T11:30:01.837Z,25.8
2022-10-17T11:31:18.089Z,26
2022-10-17T11:32:34.332Z,26.1
2022-10-17T11:33:50.562Z,26
2022-10-17T11:35:06.804Z,25.8
2022-10-17T11:36:23.052Z,25.8
2022-10-17T11:37:39.286Z,25.6
2022-10-17T11:38:55.517Z,25.6
2022-10-17T11:40:11.771Z,25.7
2022-10-17T11:41:28.012Z,25.6
2022-10-17T11:42:43.254Z,25.7
2022-10-17T11:43:59.494Z,25.7
2022-10-17T11:45:15.751Z,25.8
2022-10-17T11:46:31.982Z,25.8
2022-10-17T11:47:48.222Z,25.8
2022-10-17T11:49:04.456Z,26
2022-10-17T11:50:20.711Z,26.2
2022-10-17T11:51:36.945Z,26.5
2022-10-17T11:52:53.189Z,26.7
2022-10-17T11:54:09.424Z,26.7
2022-10-17T11:55:25.667Z,26.5
2022-10-17T11:56:41.895Z,26.5
2022-10-17T11:57:58.140Z,26.7
2022-10-17T11:59:13.406Z,26.7
2022-10-17T12:00:29.635Z,26.6
2022-10-17T12:01:45.000Z,26.6
2022-10-17T12:03:02.113Z,26.4
2022-10-17T12:04:18.352Z,26.4
2022-10-17T12:05:34.593Z,26.4
2022-10-17T12:06:50.841Z,26.5
2022-10-17T12:08:07.084Z,26.6
2022-10-17T12:09:23.323Z,26.7
2022-10-17T12:10:39.566Z,26.8
2022-10-17T12:11:55.797Z,26.8
2022-10-17T12:13:12.042Z,27
2022-10-17T12:14:28.288Z,27.2
2022-10-17T12:15:43.547Z,27.3
2022-10-17T12:16:59.774Z,27.3
2022-10-17T12:18:16.018Z,27.1
2022-10-17T12:19:32.271Z,27
2022-10-17T12:20:48.504Z,26.9
2022-10-17T12:22:04.744Z,26.9
2022-10-17T12:23:20.977Z,26.9
2022-10-17T12:24:37.221Z,26.9
2022-10-17T12:25:53.456Z,26.9
2022-10-17T12:27:09.702Z,27
2022-10-17T12:28:25.944Z,27
2022-10-17T12:29:42.181Z,27
2022-10-17T12:30:58.417Z,26.9
2022-10-17T12:32:13.685Z,26.9
2022-10-17T12:33:29.915Z,27
2022-10-17T12:34:46.159Z,27
2022-10-17T12:36:02.403Z,27.1
2022-10-17T12:37:18.647Z,27.3
2022-10-17T12:38:34.900Z,27.3
2022-10-17T12:39:50.139Z,27.1
2022-10-17T12:41:06.388Z,27.1
2022-10-17T12:42:22.621Z,27.1
2022-10-17T12:43:38.867Z,27.1
2022-10-17T12:44:55.116Z,27
2022-10-17T12:46:11.346Z,27
2022-10-17T12:47:27.595Z,26.9
2022-10-17T12:48:43.824Z,26.8
2022-10-17T12:50:00.063Z,26.8
2022-10-17T12:51:16.322Z,26.7
2022-10-17T12:52:32.544Z,26.8
2022-10-17T12:53:48.771Z,26.8
2022-10-17T12:55:05.013Z,26.9
2022-10-17T12:56:20.281Z,26.8
2022-10-17T12:57:36.522Z,26.8
2022-10-17T12:58:52.759Z,26.8
2022-10-17T13:00:08.992Z,26.8
2022-10-17T13:01:25.239Z,26.8
2022-10-17T13:02:41.485Z,26.7
2022-10-17T13:03:57.725Z,26.7
2022-10-17T13:05:13.952Z,26.8
2022-10-17T13:06:30.207Z,26.7
2022-10-17T13:07:46.436Z,26.8
2022-10-17T13:09:02.674Z,26.9
2022-10-17T13:10:18.911Z,26.9
2022-10-17T13:11:35.156Z,26.8
2022-10-17T13:12:50.000Z,26.9
2022-10-17T13:14:06.660Z,27
2022-10-17T13:15:22.885Z,27.2
2022-10-17T13:16:39.140Z,27.5
2022-10-17T13:17:55.367Z,27.9
2022-10-17T13:19:11.620Z,28.2
2022-10-17T13:20:27.848Z,28.4
2022-10-17T13:21:44.104Z,28.4
2022-10-17T13:23:00.340Z,28.2
2022-10-17T13:24:16.587Z,28
2022-10-17T13:25:32.815Z,27.9
2022-10-17T13:26:49.050Z,27.9
2022-10-17T13:28:05.292Z,27.9
2022-10-17T13:29:20.560Z,27.9
2022-10-17T13:30:36.801Z,28
2022-10-17T13:31:53.042Z,28.1
2022-10-17T13:33:09.276Z,28.1
2022-10-17T13:34:25.513Z,28
2022-10-17T13:35:41.755Z,28
2022-10-17T13:36:57.988Z,28
2022-10-17T13:38:14.226Z,28
2022-10-17T13:39:30.485Z,28
2022-10-17T13:40:46.718Z,27.9
2022-10-17T13:42:02.957Z,27.8
2022-10-17T13:43:19.209Z,27.7
2022-10-17T13:44:35.445Z,27.6
2022-10-17T13:45:50.685Z,27.7
2022-10-17T13:47:06.930Z,28
2022-10-17T13:48:23.185Z,28.3
2022-10-17T13:49:39.416Z,28.7
2022-10-17T13:50:55.654Z,28.9
2022-10-17T13:52:11.889Z,28.9
2022-10-17T13:53:28.147Z,28.6
2022-10-17T13:54:44.366Z,28.6
2022-10-17T13:56:00.631Z,28.6
2022-10-17T13:57:16.861Z,28.4
2022-10-17T13:58:33.093Z,28.4
2022-10-17T13:59:49.352Z,28.1
2022-10-17T14:01:05.583Z,27.9
2022-10-17T14:02:20.850Z,27.6
2022-10-17T14:03:37.079Z,27.4
2022-10-17T14:04:53.321Z,27.2
2022-10-17T14:06:09.543Z,27.1
2022-10-17T14:07:25.789Z,26.9
2022-10-17T14:08:42.029Z,26.9
2022-10-17T14:09:58.273Z,26.8
2022-10-17T14:11:14.518Z,26.8
2022-10-17T14:12:30.760Z,26.7
2022-10-17T14:13:47.006Z,26.7
2022-10-17T14:15:03.235Z,26.7
2022-10-17T14:16:19.479Z,26.6
2022-10-17T14:17:35.720Z,26.6
2022-10-17T14:18:50.962Z,26.5
2022-10-17T14:20:07.212Z,26.5
2022-10-17T14:21:23.448Z,26.5
2022-10-17T14:22:39.698Z,26.4
2022-10-17T14:23:55.923Z,26.4
2022-10-17T14:25:12.174Z,26.4
2022-10-17T14:26:28.400Z,26.3
2022-10-17T14:27:44.650Z,26.3
2022-10-17T14:29:00.894Z,26.3
2022-10-17T14:30:17.121Z,26.3
2022-10-17T14:31:33.379Z,26.2
2022-10-17T14:32:49.616Z,26.2
2022-10-17T14:34:05.842Z,26.2
2022-10-17T14:35:21.112Z,26.2
2022-10-17T14:36:37.370Z,26.1
2022-10-17T14:37:53.590Z,26.1
2022-10-17T14:39:09.828Z,26.1
2022-10-17T14:40:26.065Z,26.1
2022-10-17T14:41:42.309Z,26.1
2022-10-17T14:42:58.554Z,26
2022-10-17T14:44:14.805Z,26
2022-10-17T14:45:31.053Z,25.9
2022-10-17T14:46:47.259Z,25.9
2022-10-17T14:48:03.506Z,25.9
2022-10-17T14:49:19.763Z,25.8
2022-10-17T14:51:52.233Z,25.8
2022-10-17T14:53:07.509Z,25.8
2022-10-17T14:54:23.720Z,25.8
2022-10-17T14:55:39.957Z,25.7
2022-10-17T14:56:56.218Z,25.7
2022-10-17T14:58:12.433Z,25.7
2022-10-17T14:59:28.680Z,25.7
2022-10-17T15:00:44.915Z,25.7
2022-10-17T15:02:01.173Z,25.6
2022-10-17T15:03:17.427Z,25.5
2022-10-17T15:04:33.657Z,25.5
2022-10-17T15:05:49.887Z,25.5
2022-10-17T15:07:06.121Z,25.5
2022-10-17T15:08:22.373Z,25.5
2022-10-17T15:09:37.632Z,25.4
2022-10-17T15:10:53.866Z,25.4
2022-10-17T15:12:10.125Z,25.4
2022-10-17T15:13:26.343Z,25.3
2022-10-17T15:14:42.573Z,25.3
2022-10-17T15:15:58.838Z,25.2
2022-10-17T15:17:15.050Z,25.2
2022-10-17T15:18:31.308Z,25.2
2022-10-17T15:19:47.538Z,25.2
2022-10-17T15:21:03.780Z,25.4
2022-10-17T15:22:20.026Z,25.7
2022-10-17T15:23:36.283Z,26.1
2022-10-17T15:24:52.495Z,26.5
2022-10-17T15:26:07.765Z,26.7
2022-10-17T15:27:24.013Z,27
2022-10-17T15:28:40.239Z,27.1
2022-10-17T15:29:56.477Z,27.2
2022-10-17T15:31:12.708Z,27.1
2022-10-17T15:32:28.974Z,27.1
2022-10-17T15:33:45.211Z,27
2022-10-17T15:35:01.450Z,26.7
2022-10-17T15:36:17.669Z,26.5
2022-10-17T15:37:33.922Z,26.2
2022-10-17T15:38:50.175Z,25.9
2022-10-17T15:40:06.390Z,25.7
2022-10-17T15:41:22.634Z,25.5
2022-10-17T15:42:37.909Z,25.3
2022-10-17T15:43:54.129Z,25.2
2022-10-17T15:45:10.365Z,25
2022-10-17T15:46:26.617Z,24.9
2022-10-17T15:47:42.876Z,24.8
2022-10-17T15:48:59.102Z,24.6
2022-10-17T15:50:15.353Z,24.5
2022-10-17T15:51:31.581Z,24.4
2022-10-17T15:52:47.829Z,24.2
2022-10-17T15:54:04.056Z,24.2
2022-10-17T15:55:20.292Z,24.1
2022-10-17T15:56:36.528Z,24
2022-10-17T15:57:52.764Z,23.9
2022-10-17T15:59:08.031Z,23.8
2022-10-17T16:00:24.288Z,23.8
2022-10-17T16:01:40.502Z,23.7
2022-10-17T16:02:56.770Z,23.6
2022-10-17T16:04:13.001Z,23.6
2022-10-17T16:05:29.249Z,23.5
2022-10-17T16:06:45.473Z,23.4
2022-10-17T16:08:01.729Z,23.3
2022-10-17T16:09:17.965Z,23.1
2022-10-17T16:10:34.185Z,23
2022-10-17T16:11:50.437Z,22.8
2022-10-17T16:13:06.693Z,22.7
2022-10-17T16:14:22.910Z,22.6
2022-10-17T16:15:38.178Z,22.5
2022-10-17T16:16:54.405Z,22.4
2022-10-17T16:18:10.641Z,22.3
2022-10-17T16:19:26.894Z,22.2
2022-10-17T16:20:43.140Z,22.1
2022-10-17T16:21:59.373Z,22.1
2022-10-17T16:23:15.631Z,22
2022-10-17T16:24:31.869Z,21.9
2022-10-17T16:25:48.089Z,21.8
2022-10-17T16:27:04.341Z,21.8
2022-10-17T16:28:20.581Z,21.8
2022-10-17T16:29:36.805Z,21.7
2022-10-17T16:30:53.061Z,21.7
2022-10-17T16:32:08.305Z,21.6
2022-10-17T16:33:24.563Z,21.6
2022-10-17T16:34:40.786Z,21.5
2022-10-17T16:35:57.018Z,21.5
2022-10-17T16:37:13.261Z,21.4
2022-10-17T16:38:29.521Z,21.3
2022-10-17T16:39:45.756Z,21.2
2022-10-17T16:41:01.972Z,21.1
2022-10-17T16:42:18.236Z,21
2022-10-17T16:43:34.511Z,20.9
2022-10-17T16:44:50.814Z,20.9
2022-10-17T16:46:07.103Z,20.8
2022-10-17T16:47:23.392Z,20.8
2022-10-17T16:48:38.707Z,20.8
2022-10-17T16:49:55.004Z,20.7
2022-10-17T16:51:11.297Z,20.7
2022-10-17T16:52:27.590Z,20.6
2022-10-17T16:53:43.910Z,20.6
2022-10-17T16:54:59.198Z,20.5
2022-10-17T16:56:15.506Z,20.4
2022-10-17T16:57:31.807Z,20.3
2022-10-17T16:58:48.100Z,20.2
2022-10-17T17:00:04.371Z,20.2
2022-10-17T17:01:20.685Z,20.1
2022-10-17T17:02:36.990Z,20.1
2022-10-17T17:03:53.275Z,20
2022-10-17T17:05:09.544Z,20